sensor_id;sensor_type;location;lat;lon;timestamp;pressure;altitude;pressure_sealevel;temperature;humidity
68656;BME280;55638;51.122;13.606;2023-03-01T00:00:50;101620.22;;;-5.04;62.93
68656;BME280;55638;51.122;13.606;2023-03-01T00:02:22;101620.22;;;-5.06;62.87
68656;BME280;55638;51.122;13.606;2023-03-01T00:03:54;101615.81;;;-5.07;62.77
68656;BME280;55638;51.122;13.606;2023-03-01T00:05:26;101614.94;;;-5.09;62.89
68656;BME280;55638;51.122;13.606;2023-03-01T00:06:58;101618.47;;;-5.10;62.80
68656;BME280;55638;51.122;13.606;2023-03-01T00:08:30;101622.81;;;-5.12;62.67
68656;BME280;55638;51.122;13.606;2023-03-01T00:10:02;101620.19;;;-5.13;62.74
68656;BME280;55638;51.122;13.606;2023-03-01T00:11:34;101625.44;;;-5.15;62.73
68656;BME280;55638;51.122;13.606;2023-03-01T00:13:06;101625.44;;;-5.18;62.90
68656;BME280;55638;51.122;13.606;2023-03-01T00:14:38;101623.69;;;-5.19;62.81
68656;BME280;55638;51.122;13.606;2023-03-01T00:16:14;101620.16;;;-5.22;62.75
68656;BME280;55638;51.122;13.606;2023-03-01T00:17:47;101620.16;;;-5.26;62.83
68656;BME280;55638;51.122;13.606;2023-03-01T00:19:19;101610.50;;;-5.28;63.00
68656;BME280;55638;51.122;13.606;2023-03-01T00:20:52;101612.25;;;-5.29;62.87
68656;BME280;55638;51.122;13.606;2023-03-01T00:22:26;101604.34;;;-5.30;62.89
68656;BME280;55638;51.122;13.606;2023-03-01T00:23:59;101611.34;;;-5.32;63.01
68656;BME280;55638;51.122;13.606;2023-03-01T00:25:30;101614.84;;;-5.32;63.31
68656;BME280;55638;51.122;13.606;2023-03-01T00:27:02;101609.56;;;-5.33;63.65
68656;BME280;55638;51.122;13.606;2023-03-01T00:28:34;101611.31;;;-5.34;64.00
68656;BME280;55638;51.122;13.606;2023-03-01T00:30:06;101609.56;;;-5.33;64.10
68656;BME280;55638;51.122;13.606;2023-03-01T00:31:38;101615.69;;;-5.33;63.97
68656;BME280;55638;51.122;13.606;2023-03-01T00:33:10;101614.84;;;-5.32;63.83
68656;BME280;55638;51.122;13.606;2023-03-01T00:34:43;101621.88;;;-5.32;63.71
68656;BME280;55638;51.122;13.606;2023-03-01T00:36:27;101612.19;;;-5.33;63.73
68656;BME280;55638;51.122;13.606;2023-03-01T00:38:01;101618.34;;;-5.34;63.71
68656;BME280;55638;51.122;13.606;2023-03-01T00:39:33;101613.09;;;-5.34;63.66
68656;BME280;55638;51.122;13.606;2023-03-01T00:41:14;101607.81;;;-5.37;63.60
68656;BME280;55638;51.122;13.606;2023-03-01T00:42:46;101602.56;;;-5.37;63.56
68656;BME280;55638;51.122;13.606;2023-03-01T00:44:18;101603.44;;;-5.38;63.58
68656;BME280;55638;51.122;13.606;2023-03-01T00:45:49;101604.28;;;-5.39;63.56
68656;BME280;55638;51.122;13.606;2023-03-01T00:47:21;101603.41;;;-5.41;63.58
68656;BME280;55638;51.122;13.606;2023-03-01T00:48:53;101599.00;;;-5.42;63.61
68656;BME280;55638;51.122;13.606;2023-03-01T00:50:28;101599.00;;;-5.42;63.54
68656;BME280;55638;51.122;13.606;2023-03-01T00:52:00;101598.13;;;-5.43;63.39
68656;BME280;55638;51.122;13.606;2023-03-01T00:53:32;101587.63;;;-5.44;63.40
68656;BME280;55638;51.122;13.606;2023-03-01T00:55:04;101585.00;;;-5.44;63.46
68656;BME280;55638;51.122;13.606;2023-03-01T00:56:36;101588.50;;;-5.45;63.39
68656;BME280;55638;51.122;13.606;2023-03-01T00:58:08;101588.50;;;-5.47;63.42
68656;BME280;55638;51.122;13.606;2023-03-01T00:59:39;101582.34;;;-5.49;63.39
68656;BME280;55638;51.122;13.606;2023-03-01T01:01:17;101582.31;;;-5.52;63.43
68656;BME280;55638;51.122;13.606;2023-03-01T01:02:49;101579.69;;;-5.54;63.26
68656;BME280;55638;51.122;13.606;2023-03-01T01:04:21;101589.31;;;-5.53;63.31
68656;BME280;55638;51.122;13.606;2023-03-01T01:05:54;101584.94;;;-5.54;63.18
68656;BME280;55638;51.122;13.606;2023-03-01T01:07:25;101591.06;;;-5.56;63.38
68656;BME280;55638;51.122;13.606;2023-03-01T01:08:58;101591.94;;;-5.57;63.30
68656;BME280;55638;51.122;13.606;2023-03-01T01:10:30;101584.91;;;-5.60;63.38
68656;BME280;55638;51.122;13.606;2023-03-01T01:12:02;101591.06;;;-5.61;63.47
68656;BME280;55638;51.122;13.606;2023-03-01T01:13:34;101588.41;;;-5.62;63.58
68656;BME280;55638;51.122;13.606;2023-03-01T01:15:06;101591.03;;;-5.62;63.39
68656;BME280;55638;51.122;13.606;2023-03-01T01:16:38;101587.53;;;-5.64;63.36
68656;BME280;55638;51.122;13.606;2023-03-01T01:18:10;101591.00;;;-5.65;63.46
68656;BME280;55638;51.122;13.606;2023-03-01T01:19:42;101589.25;;;-5.66;63.72
68656;BME280;55638;51.122;13.606;2023-03-01T01:21:17;101585.75;;;-5.67;63.57
68656;BME280;55638;51.122;13.606;2023-03-01T01:22:49;101591.00;;;-5.67;63.49
68656;BME280;55638;51.122;13.606;2023-03-01T01:24:21;101590.13;;;-5.67;63.59
68656;BME280;55638;51.122;13.606;2023-03-01T01:25:53;101586.63;;;-5.68;63.57
68656;BME280;55638;51.122;13.606;2023-03-01T01:27:25;101585.72;;;-5.68;63.40
68656;BME280;55638;51.122;13.606;2023-03-01T01:28:57;101578.72;;;-5.69;63.38
68656;BME280;55638;51.122;13.606;2023-03-01T01:30:29;101583.13;;;-5.70;63.35
68656;BME280;55638;51.122;13.606;2023-03-01T01:32:00;101582.22;;;-5.72;63.66
68656;BME280;55638;51.122;13.606;2023-03-01T01:33:33;101574.34;;;-5.72;63.53
68656;BME280;55638;51.122;13.606;2023-03-01T01:35:05;101582.22;;;-5.72;63.54
68656;BME280;55638;51.122;13.606;2023-03-01T01:36:37;101572.59;;;-5.73;63.66
68656;BME280;55638;51.122;13.606;2023-03-01T01:38:08;101577.84;;;-5.73;63.71
68656;BME280;55638;51.122;13.606;2023-03-01T01:39:40;101566.47;;;-5.74;63.60
68656;BME280;55638;51.122;13.606;2023-03-01T01:41:13;101560.34;;;-5.74;63.64
68656;BME280;55638;51.122;13.606;2023-03-01T01:42:45;101563.81;;;-5.75;63.46
68656;BME280;55638;51.122;13.606;2023-03-01T01:44:24;101569.97;;;-5.75;63.45
68656;BME280;55638;51.122;13.606;2023-03-01T01:46:13;101571.66;;;-5.78;63.56
68656;BME280;55638;51.122;13.606;2023-03-01T01:47:47;101567.31;;;-5.78;63.35
68656;BME280;55638;51.122;13.606;2023-03-01T01:49:53;101565.53;;;-5.83;63.54
68656;BME280;55638;51.122;13.606;2023-03-01T01:51:31;101568.16;;;-5.80;63.41
68656;BME280;55638;51.122;13.606;2023-03-01T01:53:15;101569.91;;;-5.82;63.27
68656;BME280;55638;51.122;13.606;2023-03-01T01:55:15;101572.47;;;-5.88;63.43
68656;BME280;55638;51.122;13.606;2023-03-01T01:56:55;101574.25;;;-5.87;63.22
68656;BME280;55638;51.122;13.606;2023-03-01T01:58:29;101566.34;;;-5.89;63.22
68656;BME280;55638;51.122;13.606;2023-03-01T02:00:14;101568.09;;;-5.94;63.39
68656;BME280;55638;51.122;13.606;2023-03-01T02:01:47;101562.84;;;-5.92;63.20
68656;BME280;55638;51.122;13.606;2023-03-01T02:03:26;101563.69;;;-5.95;63.36
68656;BME280;55638;51.122;13.606;2023-03-01T02:05:13;101564.53;;;-5.98;63.52
68656;BME280;55638;51.122;13.606;2023-03-01T02:06:55;101564.53;;;-5.98;63.43
68656;BME280;55638;51.122;13.606;2023-03-01T02:08:31;101560.16;;;-5.99;63.33
68656;BME280;55638;51.122;13.606;2023-03-01T02:10:06;101560.16;;;-5.99;63.13
68656;BME280;55638;51.122;13.606;2023-03-01T02:11:38;101552.28;;;-6.00;63.13
68656;BME280;55638;51.122;13.606;2023-03-01T02:13:11;101554.91;;;-6.02;63.20
68656;BME280;55638;51.122;13.606;2023-03-01T02:14:44;101554.03;;;-6.02;63.21
68656;BME280;55638;51.122;13.606;2023-03-01T02:16:16;101556.66;;;-6.04;63.28
68656;BME280;55638;51.122;13.606;2023-03-01T02:17:49;101554.88;;;-6.05;63.48
68656;BME280;55638;51.122;13.606;2023-03-01T02:20:03;101551.34;;;-6.10;63.66
68656;BME280;55638;51.122;13.606;2023-03-01T02:23:24;101549.59;;;-6.09;63.32
68656;BME280;55638;51.122;13.606;2023-03-01T02:26:45;101552.19;;;-6.14;63.55
68656;BME280;55638;51.122;13.606;2023-03-01T02:28:25;101551.34;;;-6.13;63.36
68656;BME280;55638;51.122;13.606;2023-03-01T02:29:57;101554.81;;;-6.15;63.24
68656;BME280;55638;51.122;13.606;2023-03-01T02:31:29;101541.66;;;-6.17;63.21
68656;BME280;55638;51.122;13.606;2023-03-01T02:33:13;101535.53;;;-6.19;63.25
68656;BME280;55638;51.122;13.606;2023-03-01T02:34:44;101544.28;;;-6.20;63.21
68656;BME280;55638;51.122;13.606;2023-03-01T02:36:19;101537.25;;;-6.23;63.16
68656;BME280;55638;51.122;13.606;2023-03-01T02:37:52;101532.00;;;-6.24;63.12
68656;BME280;55638;51.122;13.606;2023-03-01T02:39:27;101527.63;;;-6.27;63.41
68656;BME280;55638;51.122;13.606;2023-03-01T02:41:02;101523.25;;;-6.26;63.30
68656;BME280;55638;51.122;13.606;2023-03-01T02:42:43;101528.47;;;-6.29;63.63
68656;BME280;55638;51.122;13.606;2023-03-01T02:44:17;101523.19;;;-6.32;63.59
68656;BME280;55638;51.122;13.606;2023-03-01T02:45:50;101522.34;;;-6.28;63.41
68656;BME280;55638;51.122;13.606;2023-03-01T02:47:22;101529.31;;;-6.30;63.44
68656;BME280;55638;51.122;13.606;2023-03-01T02:48:57;101524.06;;;-6.30;63.67
68656;BME280;55638;51.122;13.606;2023-03-01T02:54:24;101522.31;;;-6.31;63.70
68656;BME280;55638;51.122;13.606;2023-03-01T02:55:57;101524.94;;;-6.31;63.65
68656;BME280;55638;51.122;13.606;2023-03-01T02:57:30;101529.31;;;-6.32;63.69
68656;BME280;55638;51.122;13.606;2023-03-01T02:59:03;101527.56;;;-6.31;63.84
68656;BME280;55638;51.122;13.606;2023-03-01T03:00:38;101524.94;;;-6.33;63.78
68656;BME280;55638;51.122;13.606;2023-03-01T03:02:26;101527.53;;;-6.34;63.97
68656;BME280;55638;51.122;13.606;2023-03-01T03:04:24;101529.31;;;-6.32;63.89
68656;BME280;55638;51.122;13.606;2023-03-01T03:05:55;101526.66;;;-6.33;63.90
68656;BME280;55638;51.122;13.606;2023-03-01T03:07:27;101528.44;;;-6.32;64.04
68656;BME280;55638;51.122;13.606;2023-03-01T03:08:59;101530.19;;;-6.31;63.84
68656;BME280;55638;51.122;13.606;2023-03-01T03:10:35;101529.31;;;-6.30;63.94
68656;BME280;55638;51.122;13.606;2023-03-01T03:12:07;101526.69;;;-6.30;63.84
68656;BME280;55638;51.122;13.606;2023-03-01T03:13:39;101523.19;;;-6.31;63.87
68656;BME280;55638;51.122;13.606;2023-03-01T03:15:21;101524.06;;;-6.30;63.82
68656;BME280;55638;51.122;13.606;2023-03-01T03:16:53;101519.72;;;-6.28;64.00
68656;BME280;55638;51.122;13.606;2023-03-01T03:18:26;101510.94;;;-6.30;63.99
68656;BME280;55638;51.122;13.606;2023-03-01T03:20:00;101510.94;;;-6.30;63.79
68656;BME280;55638;51.122;13.606;2023-03-01T03:21:33;101515.34;;;-6.29;63.87
68656;BME280;55638;51.122;13.606;2023-03-01T03:23:05;101505.69;;;-6.30;63.79
68656;BME280;55638;51.122;13.606;2023-03-01T03:24:36;101503.97;;;-6.28;63.76
68656;BME280;55638;51.122;13.606;2023-03-01T03:26:09;101511.84;;;-6.28;63.65
68656;BME280;55638;51.122;13.606;2023-03-01T03:27:46;101510.97;;;-6.29;63.74
68656;BME280;55638;51.122;13.606;2023-03-01T03:29:18;101512.72;;;-6.29;63.65
68656;BME280;55638;51.122;13.606;2023-03-01T03:30:50;101510.94;;;-6.30;63.65
68656;BME280;55638;51.122;13.606;2023-03-01T03:32:22;101501.31;;;-6.31;63.46
68656;BME280;55638;51.122;13.606;2023-03-01T03:33:54;101508.28;;;-6.33;63.50
68656;BME280;55638;51.122;13.606;2023-03-01T03:35:31;101504.81;;;-6.34;63.35
68656;BME280;55638;51.122;13.606;2023-03-01T03:37:04;101514.41;;;-6.34;63.26
68656;BME280;55638;51.122;13.606;2023-03-01T03:38:56;101513.56;;;-6.36;63.21
68656;BME280;55638;51.122;13.606;2023-03-01T03:40:31;101507.41;;;-6.38;63.14
68656;BME280;55638;51.122;13.606;2023-03-01T03:42:03;101504.75;;;-6.42;63.18
68656;BME280;55638;51.122;13.606;2023-03-01T03:43:36;101500.34;;;-6.44;63.09
68656;BME280;55638;51.122;13.606;2023-03-01T03:45:08;101496.88;;;-6.46;63.13
68656;BME280;55638;51.122;13.606;2023-03-01T03:46:40;101494.22;;;-6.48;63.24
68656;BME280;55638;51.122;13.606;2023-03-01T03:48:12;101500.34;;;-6.49;63.21
68656;BME280;55638;51.122;13.606;2023-03-01T03:49:44;101499.44;;;-6.51;63.13
68656;BME280;55638;51.122;13.606;2023-03-01T03:51:17;101492.41;;;-6.53;63.36
68656;BME280;55638;51.122;13.606;2023-03-01T03:52:49;101496.78;;;-6.54;63.38
68656;BME280;55638;51.122;13.606;2023-03-01T03:54:21;101502.88;;;-6.56;63.41
68656;BME280;55638;51.122;13.606;2023-03-01T03:55:53;101495.00;;;-6.58;63.49
68656;BME280;55638;51.122;13.606;2023-03-01T03:57:25;101498.50;;;-6.59;63.45
68656;BME280;55638;51.122;13.606;2023-03-01T03:58:56;101495.84;;;-6.60;63.41
68656;BME280;55638;51.122;13.606;2023-03-01T04:00:28;101501.09;;;-6.62;63.40
68656;BME280;55638;51.122;13.606;2023-03-01T04:02:00;101497.63;;;-6.62;63.42
68656;BME280;55638;51.122;13.606;2023-03-01T04:03:33;101496.69;;;-6.63;63.38
68656;BME280;55638;51.122;13.606;2023-03-01T04:05:08;101496.72;;;-6.65;63.32
68656;BME280;55638;51.122;13.606;2023-03-01T04:06:40;101502.81;;;-6.66;63.55
68656;BME280;55638;51.122;13.606;2023-03-01T04:08:13;101508.94;;;-6.65;63.53
68656;BME280;55638;51.122;13.606;2023-03-01T04:09:45;101506.28;;;-6.68;63.52
68656;BME280;55638;51.122;13.606;2023-03-01T04:11:16;101506.28;;;-6.68;63.50
68656;BME280;55638;51.122;13.606;2023-03-01T04:12:58;101508.88;;;-6.70;63.50
68656;BME280;55638;51.122;13.606;2023-03-01T04:14:29;101513.25;;;-6.70;63.63
68656;BME280;55638;51.122;13.606;2023-03-01T04:16:01;101511.50;;;-6.71;63.65
68656;BME280;55638;51.122;13.606;2023-03-01T04:17:33;101515.88;;;-6.72;63.71
68656;BME280;55638;51.122;13.606;2023-03-01T04:19:05;101517.63;;;-6.72;63.74
68656;BME280;55638;51.122;13.606;2023-03-01T04:20:37;101508.88;;;-6.71;63.67
68656;BME280;55638;51.122;13.606;2023-03-01T04:22:10;101515.00;;;-6.72;63.60
68656;BME280;55638;51.122;13.606;2023-03-01T04:23:43;101511.50;;;-6.71;63.69
68656;BME280;55638;51.122;13.606;2023-03-01T04:25:14;101513.25;;;-6.72;63.83
68656;BME280;55638;51.122;13.606;2023-03-01T04:26:46;101522.00;;;-6.71;63.58
68656;BME280;55638;51.122;13.606;2023-03-01T04:28:18;101507.16;;;-6.72;63.49
68656;BME280;55638;51.122;13.606;2023-03-01T04:29:50;101503.63;;;-6.74;63.58
68656;BME280;55638;51.122;13.606;2023-03-01T04:31:22;101507.97;;;-6.73;63.75
68656;BME280;55638;51.122;13.606;2023-03-01T04:32:53;101509.75;;;-6.75;63.75
68656;BME280;55638;51.122;13.606;2023-03-01T04:34:25;101506.22;;;-6.76;63.69
68656;BME280;55638;51.122;13.606;2023-03-01T04:35:58;101505.38;;;-6.75;63.71
68656;BME280;55638;51.122;13.606;2023-03-01T04:37:30;101501.88;;;-6.75;63.83
68656;BME280;55638;51.122;13.606;2023-03-01T04:39:02;101496.63;;;-6.74;63.60
68656;BME280;55638;51.122;13.606;2023-03-01T04:40:43;101494.00;;;-6.75;63.54
68656;BME280;55638;51.122;13.606;2023-03-01T04:42:15;101490.50;;;-6.74;63.52
68656;BME280;55638;51.122;13.606;2023-03-01T04:43:48;101502.75;;;-6.73;63.70
68656;BME280;55638;51.122;13.606;2023-03-01T04:45:20;101500.97;;;-6.76;63.45
68656;BME280;55638;51.122;13.606;2023-03-01T04:46:52;101503.59;;;-6.77;63.48
68656;BME280;55638;51.122;13.606;2023-03-01T04:48:24;101501.84;;;-6.78;63.49
68656;BME280;55638;51.122;13.606;2023-03-01T04:49:56;101503.56;;;-6.79;63.37
68656;BME280;55638;51.122;13.606;2023-03-01T04:51:28;101509.72;;;-6.78;63.43
68656;BME280;55638;51.122;13.606;2023-03-01T04:53:00;101512.31;;;-6.78;63.53
68656;BME280;55638;51.122;13.606;2023-03-01T04:54:34;101507.94;;;-6.81;63.46
68656;BME280;55638;51.122;13.606;2023-03-01T04:56:06;101504.44;;;-6.81;63.32
68656;BME280;55638;51.122;13.606;2023-03-01T04:57:38;101502.66;;;-6.82;63.70
68656;BME280;55638;51.122;13.606;2023-03-01T04:59:10;101509.66;;;-6.83;63.63
68656;BME280;55638;51.122;13.606;2023-03-01T05:00:44;101511.41;;;-6.83;63.56
68656;BME280;55638;51.122;13.606;2023-03-01T05:02:15;101509.66;;;-6.83;63.51
68656;BME280;55638;51.122;13.606;2023-03-01T05:03:51;101504.41;;;-6.84;63.63
68656;BME280;55638;51.122;13.606;2023-03-01T05:05:30;101499.13;;;-6.86;63.42
68656;BME280;55638;51.122;13.606;2023-03-01T05:07:02;101506.13;;;-6.86;63.33
68656;BME280;55638;51.122;13.606;2023-03-01T05:08:34;101502.63;;;-6.87;63.44
68656;BME280;55638;51.122;13.606;2023-03-01T05:10:08;101499.97;;;-6.89;63.54
68656;BME280;55638;51.122;13.606;2023-03-01T05:11:40;101509.63;;;-6.86;63.46
68656;BME280;55638;51.122;13.606;2023-03-01T05:13:13;101498.22;;;-6.90;63.40
68656;BME280;55638;51.122;13.606;2023-03-01T05:14:52;101498.22;;;-6.90;63.49
68656;BME280;55638;51.122;13.606;2023-03-01T05:16:24;101501.72;;;-6.91;63.45
68656;BME280;55638;51.122;13.606;2023-03-01T05:17:57;101495.56;;;-6.93;63.38
68656;BME280;55638;51.122;13.606;2023-03-01T05:19:31;101502.56;;;-6.93;63.30
68656;BME280;55638;51.122;13.606;2023-03-01T05:21:11;101503.41;;;-6.96;63.32
68656;BME280;55638;51.122;13.606;2023-03-01T05:22:44;101500.81;;;-6.94;63.34
68656;BME280;55638;51.122;13.606;2023-03-01T05:24:15;101499.03;;;-6.95;63.28
68656;BME280;55638;51.122;13.606;2023-03-01T05:25:47;101498.16;;;-6.97;63.27
68656;BME280;55638;51.122;13.606;2023-03-01T05:27:19;101497.25;;;-6.99;63.23
68656;BME280;55638;51.122;13.606;2023-03-01T05:28:53;101495.47;;;-7.02;63.24
68656;BME280;55638;51.122;13.606;2023-03-01T05:30:32;101502.47;;;-7.02;63.26
68656;BME280;55638;51.122;13.606;2023-03-01T05:32:04;101494.59;;;-7.04;63.11
68656;BME280;55638;51.122;13.606;2023-03-01T05:33:37;101491.97;;;-7.07;63.11
68656;BME280;55638;51.122;13.606;2023-03-01T05:35:14;101491.91;;;-7.08;63.32
68656;BME280;55638;51.122;13.606;2023-03-01T05:36:46;101489.31;;;-7.10;63.15
68656;BME280;55638;51.122;13.606;2023-03-01T05:38:18;101486.66;;;-7.12;63.23
68656;BME280;55638;51.122;13.606;2023-03-01T05:39:50;101483.16;;;-7.14;63.09
68656;BME280;55638;51.122;13.606;2023-03-01T05:41:21;101485.75;;;-7.15;63.11
68656;BME280;55638;51.122;13.606;2023-03-01T05:42:55;101484.88;;;-7.17;62.99
68656;BME280;55638;51.122;13.606;2023-03-01T05:44:28;101482.25;;;-7.17;63.24
68656;BME280;55638;51.122;13.606;2023-03-01T05:46:00;101483.97;;;-7.19;63.21
68656;BME280;55638;51.122;13.606;2023-03-01T05:47:32;101487.47;;;-7.20;63.25
68656;BME280;55638;51.122;13.606;2023-03-01T05:49:04;101485.69;;;-7.21;63.17
68656;BME280;55638;51.122;13.606;2023-03-01T05:50:38;101490.91;;;-7.23;63.20
68656;BME280;55638;51.122;13.606;2023-03-01T05:52:11;101490.03;;;-7.23;63.20
68656;BME280;55638;51.122;13.606;2023-03-01T05:53:43;101490.00;;;-7.25;63.37
68656;BME280;55638;51.122;13.606;2023-03-01T05:55:16;101488.25;;;-7.26;63.37
68656;BME280;55638;51.122;13.606;2023-03-01T05:56:49;101491.75;;;-7.27;63.39
68656;BME280;55638;51.122;13.606;2023-03-01T05:58:20;101486.47;;;-7.28;63.49
68656;BME280;55638;51.122;13.606;2023-03-01T05:59:53;101488.25;;;-7.27;63.53
68656;BME280;55638;51.122;13.606;2023-03-01T06:01:25;101493.50;;;-7.27;63.75
68656;BME280;55638;51.122;13.606;2023-03-01T06:02:58;101490.88;;;-7.27;63.74
68656;BME280;55638;51.122;13.606;2023-03-01T06:04:29;101483.84;;;-7.28;63.71
68656;BME280;55638;51.122;13.606;2023-03-01T06:06:02;101496.13;;;-7.27;63.75
68656;BME280;55638;51.122;13.606;2023-03-01T06:07:34;101497.00;;;-7.27;63.85
68656;BME280;55638;51.122;13.606;2023-03-01T06:09:07;101502.22;;;-7.25;63.82
68656;BME280;55638;51.122;13.606;2023-03-01T06:10:40;101501.34;;;-7.24;63.65
68656;BME280;55638;51.122;13.606;2023-03-01T06:12:12;101497.03;;;-7.22;63.55
68656;BME280;55638;51.122;13.606;2023-03-01T06:13:44;101494.41;;;-7.24;63.56
68656;BME280;55638;51.122;13.606;2023-03-01T06:15:16;101494.41;;;-7.22;63.72
68656;BME280;55638;51.122;13.606;2023-03-01T06:16:48;101496.16;;;-7.23;63.63
68656;BME280;55638;51.122;13.606;2023-03-01T06:18:20;101497.06;;;-7.21;63.74
68656;BME280;55638;51.122;13.606;2023-03-01T06:19:52;101499.69;;;-7.21;63.69
68656;BME280;55638;51.122;13.606;2023-03-01T06:21:24;101499.69;;;-7.21;63.90
68656;BME280;55638;51.122;13.606;2023-03-01T06:22:57;101499.72;;;-7.18;63.78
68656;BME280;55638;51.122;13.606;2023-03-01T06:24:29;101497.97;;;-7.17;63.86
68656;BME280;55638;51.122;13.606;2023-03-01T06:26:06;101497.97;;;-7.16;64.06
68656;BME280;55638;51.122;13.606;2023-03-01T06:27:39;101496.25;;;-7.14;64.06
68656;BME280;55638;51.122;13.606;2023-03-01T06:29:11;101496.25;;;-7.12;64.06
68656;BME280;55638;51.122;13.606;2023-03-01T06:30:43;101498.91;;;-7.10;64.06
68656;BME280;55638;51.122;13.606;2023-03-01T06:32:15;101505.03;;;-7.08;64.09
68656;BME280;55638;51.122;13.606;2023-03-01T06:33:46;101498.06;;;-7.08;64.09
68656;BME280;55638;51.122;13.606;2023-03-01T06:35:19;101505.94;;;-7.05;63.98
68656;BME280;55638;51.122;13.606;2023-03-01T06:36:50;101505.97;;;-7.03;63.95
68656;BME280;55638;51.122;13.606;2023-03-01T06:38:23;101512.13;;;-7.01;64.01
68656;BME280;55638;51.122;13.606;2023-03-01T06:39:55;101511.25;;;-7.00;63.99
68656;BME280;55638;51.122;13.606;2023-03-01T06:41:27;101502.53;;;-6.98;64.13
68656;BME280;55638;51.122;13.606;2023-03-01T06:42:59;101509.53;;;-6.95;64.14
68656;BME280;55638;51.122;13.606;2023-03-01T06:44:31;101514.78;;;-6.92;64.14
68656;BME280;55638;51.122;13.606;2023-03-01T06:46:06;101512.19;;;-6.92;64.05
68656;BME280;55638;51.122;13.606;2023-03-01T06:47:41;101514.88;;;-6.88;64.17
68656;BME280;55638;51.122;13.606;2023-03-01T06:49:12;101514.00;;;-6.86;64.00
68656;BME280;55638;51.122;13.606;2023-03-01T06:50:44;101514.91;;;-6.84;64.01
68656;BME280;55638;51.122;13.606;2023-03-01T06:52:16;101514.00;;;-6.83;64.25
68656;BME280;55638;51.122;13.606;2023-03-01T06:53:48;101513.16;;;-6.81;64.17
68656;BME280;55638;51.122;13.606;2023-03-01T06:55:20;101507.09;;;-6.78;64.33
68656;BME280;55638;51.122;13.606;2023-03-01T06:56:51;101512.34;;;-6.75;64.51
68656;BME280;55638;51.122;13.606;2023-03-01T06:58:23;101514.09;;;-6.73;64.47
68656;BME280;55638;51.122;13.606;2023-03-01T06:59:55;101511.50;;;-6.71;64.50
68656;BME280;55638;51.122;13.606;2023-03-01T07:01:27;101510.66;;;-6.67;64.51
68656;BME280;55638;51.122;13.606;2023-03-01T07:03:00;101512.44;;;-6.65;64.40
68656;BME280;55638;51.122;13.606;2023-03-01T07:04:33;101506.34;;;-6.60;64.67
68656;BME280;55638;51.122;13.606;2023-03-01T07:06:05;101510.75;;;-6.58;64.61
68656;BME280;55638;51.122;13.606;2023-03-01T07:07:37;101512.53;;;-6.54;64.61
68656;BME280;55638;51.122;13.606;2023-03-01T07:09:09;101507.34;;;-6.49;64.70
68656;BME280;55638;51.122;13.606;2023-03-01T07:10:41;101511.72;;;-6.45;64.75
68656;BME280;55638;51.122;13.606;2023-03-01T07:12:12;101502.13;;;-6.42;64.87
68656;BME280;55638;51.122;13.606;2023-03-01T07:13:44;101509.16;;;-6.37;64.94
68656;BME280;55638;51.122;13.606;2023-03-01T07:15:16;101510.91;;;-6.33;64.93
68656;BME280;55638;51.122;13.606;2023-03-01T07:16:48;101503.97;;;-6.28;64.96
68656;BME280;55638;51.122;13.606;2023-03-01T07:18:20;101504.00;;;-6.25;65.06
68656;BME280;55638;51.122;13.606;2023-03-01T07:19:52;101502.28;;;-6.20;64.92
68656;BME280;55638;51.122;13.606;2023-03-01T07:21:24;101509.31;;;-6.16;64.92
68656;BME280;55638;51.122;13.606;2023-03-01T07:22:56;101504.94;;;-6.11;65.02
68656;BME280;55638;51.122;13.606;2023-03-01T07:24:30;101493.63;;;-6.07;65.00
68656;BME280;55638;51.122;13.606;2023-03-01T07:26:02;101491.88;;;-6.02;65.11
68656;BME280;55638;51.122;13.606;2023-03-01T07:27:33;101494.56;;;-5.97;65.05
68656;BME280;55638;51.122;13.606;2023-03-01T07:29:07;101491.06;;;-5.93;65.24
68656;BME280;55638;51.122;13.606;2023-03-01T07:30:41;101483.19;;;-5.88;65.08
68656;BME280;55638;51.122;13.606;2023-03-01T07:32:12;101483.22;;;-5.82;65.33
68656;BME280;55638;51.122;13.606;2023-03-01T07:33:44;101488.53;;;-5.78;65.04
68656;BME280;55638;51.122;13.606;2023-03-01T07:35:19;101477.16;;;-5.72;65.04
68656;BME280;55638;51.122;13.606;2023-03-01T07:36:51;101477.19;;;-5.67;65.12
68656;BME280;55638;51.122;13.606;2023-03-01T07:38:23;101466.69;;;-5.61;65.23
68656;BME280;55638;51.122;13.606;2023-03-01T07:39:54;101474.59;;;-5.57;65.33
68656;BME280;55638;51.122;13.606;2023-03-01T07:41:26;101482.47;;;-5.52;65.50
68656;BME280;55638;51.122;13.606;2023-03-01T07:42:58;101477.25;;;-5.48;65.60
68656;BME280;55638;51.122;13.606;2023-03-01T07:44:30;101474.66;;;-5.41;65.55
68656;BME280;55638;51.122;13.606;2023-03-01T07:46:03;101471.13;;;-5.36;65.69
68656;BME280;55638;51.122;13.606;2023-03-01T07:47:35;101475.53;;;-5.30;65.78
68656;BME280;55638;51.122;13.606;2023-03-01T07:49:07;101482.56;;;-5.25;65.89
68656;BME280;55638;51.122;13.606;2023-03-01T07:50:38;101475.56;;;-5.16;65.88
68656;BME280;55638;51.122;13.606;2023-03-01T07:52:11;101471.19;;;-5.11;66.00
68656;BME280;55638;51.122;13.606;2023-03-01T07:53:46;101471.19;;;-5.04;65.88
68656;BME280;55638;51.122;13.606;2023-03-01T07:55:18;101479.13;;;-4.96;66.11
68656;BME280;55638;51.122;13.606;2023-03-01T07:56:51;101477.38;;;-4.89;65.91
68656;BME280;55638;51.122;13.606;2023-03-01T07:58:23;101468.63;;;-4.84;65.99
68656;BME280;55638;51.122;13.606;2023-03-01T07:59:55;101476.50;;;-4.76;65.83
68656;BME280;55638;51.122;13.606;2023-03-01T08:01:26;101465.97;;;-4.70;65.89
68656;BME280;55638;51.122;13.606;2023-03-01T08:02:59;101467.72;;;-4.63;65.92
68656;BME280;55638;51.122;13.606;2023-03-01T08:04:32;101465.06;;;-4.58;65.83
68656;BME280;55638;51.122;13.606;2023-03-01T08:06:06;101465.94;;;-4.51;65.83
68656;BME280;55638;51.122;13.606;2023-03-01T08:07:39;101461.56;;;-4.45;65.82
68656;BME280;55638;51.122;13.606;2023-03-01T08:09:11;101468.59;;;-4.38;65.88
68656;BME280;55638;51.122;13.606;2023-03-01T08:10:42;101462.41;;;-4.32;65.91